TimeEST,TemperatureF,Dew PointF,Humidity,Sea Level PressureIn,VisibilityMPH,Wind Direction,Wind SpeedMPH,Gust SpeedMPH,PrecipitationIn,Events,Conditions,WindDirDegrees,DateUTC
12:15 AM,21.2,19.4,93,29.77,2.0,Calm,Calm,-,0.00,Snow,Light Snow,0,2013-02-15 05:15:00
12:29 AM,23.0,21.2,93,29.77,1.8,Calm,Calm,-,0.00,Snow,Light Snow,0,2013-02-15 05:29:00
12:40 AM,23.0,21.2,93,29.76,2.0,Calm,Calm,-,0.00,Snow,Light Snow,0,2013-02-15 05:40:00
12:51 AM,23.0,21.0,92,29.83,2.0,Calm,Calm,-,0.00,Snow,Light Snow,0,2013-02-15 05:51:00
1:07 AM,23.0,21.2,93,29.75,1.8,Calm,Calm,-,0.00,Snow,Light Snow,0,2013-02-15 06:07:00
1:16 AM,23.0,21.2,93,29.75,2.5,Calm,Calm,-,0.00,Snow,Light Snow,0,2013-02-15 06:16:00
1:26 AM,24.8,21.2,86,29.75,3.0,Calm,Calm,-,0.00,Snow,Light Snow,0,2013-02-15 06:26:00
1:51 AM,24.1,21.9,91,29.81,9.0,Calm,Calm,-,0.00,,Overcast,0,2013-02-15 06:51:00
2:38 AM,24.8,23.0,93,29.74,9.0,Calm,Calm,-,N/A,,Overcast,0,2013-02-15 07:38:00
2:51 AM,26.1,24.1,92,29.79,10.0,Calm,Calm,-,N/A,,Overcast,0,2013-02-15 07:51:00
3:24 AM,26.6,24.8,93,29.73,2.5,Calm,Calm,-,0.00,Snow,Light Snow,0,2013-02-15 08:24:00
3:47 AM,26.6,24.8,93,29.72,5.0,Calm,Calm,-,0.01,Snow,Light Snow,0,2013-02-15 08:47:00
3:51 AM,28.9,27.0,92,29.78,6.0,SSW,5.8,-,0.01,Snow,Light Snow,200,2013-02-15 08:51:00
4:05 AM,30.2,28.4,93,29.71,10.0,SSW,10.4,-,0.00,,Overcast,200,2013-02-15 09:05:00
4:20 AM,30.2,28.4,93,29.72,2.0,SW,10.4,-,0.00,Snow,Light Snow,230,2013-02-15 09:20:00
4:24 AM,30.2,28.4,93,29.72,0.8,SW,9.2,-,0.00,Snow,Light Snow,230,2013-02-15 09:24:00
4:34 AM,30.2,28.4,93,29.72,1.0,SW,8.1,-,0.00,Snow,Light Snow,230,2013-02-15 09:34:00
4:41 AM,30.2,28.4,93,29.72,3.0,SW,6.9,-,0.00,Snow,Light Snow,230,2013-02-15 09:41:00
4:49 AM,30.2,28.4,93,29.72,5.0,SW,8.1,-,0.00,,Overcast,230,2013-02-15 09:49:00
4:51 AM,30.0,28.9,96,29.78,5.0,SW,6.9,-,0.00,Snow,Light Snow,230,2013-02-15 09:51:00
5:15 AM,30.2,28.4,93,29.71,1.8,SW,8.1,-,0.01,Snow,Light Snow,230,2013-02-15 10:15:00
5:19 AM,30.2,28.4,93,29.71,0.8,SW,8.1,-,0.01,Snow,Light Snow,230,2013-02-15 10:19:00
5:28 AM,30.2,28.4,93,29.71,2.0,SW,6.9,-,0.01,Snow,Light Snow,220,2013-02-15 10:28:00
5:36 AM,30.2,28.4,93,29.71,6.0,SW,5.8,-,0.01,,Overcast,230,2013-02-15 10:36:00
5:44 AM,30.2,28.4,93,29.72,1.5,SW,8.1,-,0.01,Snow,Light Snow,230,2013-02-15 10:44:00
5:47 AM,30.2,28.4,93,29.72,0.8,WSW,6.9,-,0.02,Snow,Light Snow,240,2013-02-15 10:47:00
5:51 AM,30.9,28.9,92,29.78,0.5,SW,8.1,-,0.02,Fog-Snow,Snow,230,2013-02-15 10:51:00
6:08 AM,30.2,28.4,93,29.72,1.5,SW,8.1,-,0.00,Snow,Light Snow,230,2013-02-15 11:08:00
6:28 AM,30.2,30.2,100,29.72,0.8,WSW,4.6,-,0.01,Snow,Light Snow,240,2013-02-15 11:28:00
6:39 AM,30.2,30.2,100,29.73,0.8,SW,5.8,-,0.02,Snow,Light Snow,230,2013-02-15 11:39:00
6:48 AM,30.2,28.4,93,29.73,1.2,WSW,6.9,-,0.02,Snow,Light Snow,240,2013-02-15 11:48:00
6:51 AM,30.9,28.9,92,29.80,1.8,SW,9.2,-,0.02,Snow,Light Snow,230,2013-02-15 11:51:00
6:55 AM,30.2,28.4,93,29.73,3.0,SW,8.1,-,0.00,Snow,Light Snow,220,2013-02-15 11:55:00
7:21 AM,30.2,28.4,93,29.73,5.0,SW,5.8,-,0.00,Snow,Light Snow,220,2013-02-15 12:21:00
7:51 AM,30.9,28.9,92,29.81,6.0,SW,8.1,-,0.00,,Overcast,220,2013-02-15 12:51:00
8:01 AM,30.2,28.4,93,29.74,7.0,SW,10.4,-,N/A,,Overcast,220,2013-02-15 13:01:00
8:22 AM,32.0,28.4,87,29.75,9.0,SW,15.0,25.3,N/A,,Overcast,220,2013-02-15 13:22:00
8:51 AM,32.0,28.0,85,29.82,3.0,SW,13.8,21.9,0.00,Snow,Light Snow,230,2013-02-15 13:51:00
9:01 AM,30.2,26.6,86,29.76,2.5,SW,12.7,-,0.00,Snow,Light Snow,230,2013-02-15 14:01:00
9:10 AM,30.2,28.4,93,29.76,1.8,SW,12.7,-,0.00,Snow,Light Snow,230,2013-02-15 14:10:00
9:18 AM,30.2,28.4,93,29.76,2.5,SW,13.8,-,0.00,Snow,Light Snow,230,2013-02-15 14:18:00
9:25 AM,32.0,26.6,80,29.77,6.0,SW,15.0,21.9,0.00,Snow,Light Snow,220,2013-02-15 14:25:00
9:51 AM,33.1,27.0,78,29.83,10.0,SW,17.3,24.2,0.00,,Overcast,220,2013-02-15 14:51:00
10:07 AM,32.0,26.6,80,29.77,10.0,SW,16.1,21.9,N/A,,Overcast,220,2013-02-15 15:07:00
10:35 AM,32.0,24.8,75,29.77,10.0,SW,17.3,27.6,N/A,,Overcast,220,2013-02-15 15:35:00
10:51 AM,32.0,24.1,73,29.84,8.0,SW,17.3,31.1,N/A,,Overcast,230,2013-02-15 15:51:00
11:51 AM,32.0,23.0,69,29.84,10.0,SW,16.1,25.3,N/A,,Overcast,230,2013-02-15 16:51:00
12:51 PM,30.9,25.0,79,29.84,5.0,SW,13.8,24.2,0.00,Snow,Light Snow,230,2013-02-15 17:51:00
1:51 PM,30.9,24.1,76,29.85,9.0,WSW,12.7,21.9,0.00,Snow,Light Snow,240,2013-02-15 18:51:00
2:51 PM,30.0,24.1,79,29.86,9.0,SW,18.4,25.3,0.00,,Overcast,230,2013-02-15 19:51:00
3:23 PM,30.2,21.2,69,29.81,10.0,WSW,15.0,20.7,N/A,,Mostly Cloudy,240,2013-02-15 20:23:00
3:51 PM,30.0,21.9,72,29.88,10.0,SW,13.8,-,N/A,,Overcast,230,2013-02-15 20:51:00
4:51 PM,30.0,19.0,64,29.90,7.0,WSW,17.3,34.5,N/A,,Overcast,240,2013-02-15 21:51:00
5:51 PM,28.0,17.1,63,29.92,10.0,SW,10.4,21.9,N/A,,Mostly Cloudy,230,2013-02-15 22:51:00
6:51 PM,26.1,17.1,69,29.93,10.0,WSW,8.1,-,N/A,,Clear,250,2013-02-15 23:51:00
7:31 PM,26.6,17.6,69,29.87,10.0,SW,8.1,-,N/A,,Mostly Cloudy,230,2013-02-16 00:31:00
7:51 PM,26.1,19.0,75,29.94,10.0,SW,8.1,-,N/A,,Overcast,230,2013-02-16 00:51:00
8:51 PM,25.0,17.1,72,29.94,10.0,WSW,11.5,18.4,N/A,,Mostly Cloudy,240,2013-02-16 01:51:00
9:51 PM,24.1,16.0,71,29.94,10.0,WSW,10.4,16.1,N/A,,Mostly Cloudy,240,2013-02-16 02:51:00
10:09 PM,23.0,14.0,68,29.88,10.0,WSW,8.1,17.3,N/A,,Mostly Cloudy,240,2013-02-16 03:09:00
10:51 PM,21.9,12.9,68,29.95,10.0,SW,6.9,-,N/A,,Overcast,230,2013-02-16 03:51:00
11:51 PM,21.9,12.9,68,29.95,10.0,SW,6.9,-,N/A,,Overcast,230,2013-02-16 04:51:00